sensor_id;sensor_type;location;lat;lon;timestamp;P1;durP1;ratioP1;P2;durP2;ratioP2
11348;SDS011;5729;43.570;27.826;2023-05-10T00:02:22;14.50;;;9.75;;
11348;SDS011;5729;43.570;27.826;2023-05-10T00:04:48;12.40;;;9.00;;
11348;SDS011;5729;43.570;27.826;2023-05-10T00:07:13;15.93;;;8.93;;
11348;SDS011;5729;43.570;27.826;2023-05-10T00:09:39;9.20;;;7.60;;
11348;SDS011;5729;43.570;27.826;2023-05-10T00:12:05;14.80;;;8.18;;
11348;SDS011;5729;43.570;27.826;2023-05-10T00:14:30;13.10;;;8.30;;
11348;SDS011;5729;43.570;27.826;2023-05-10T00:16:56;11.80;;;8.45;;
11348;SDS011;5729;43.570;27.826;2023-05-10T00:19:21;12.32;;;8.75;;
11348;SDS011;5729;43.570;27.826;2023-05-10T00:21:47;13.13;;;8.85;;
11348;SDS011;5729;43.570;27.826;2023-05-10T00:24:12;14.93;;;10.10;;
11348;SDS011;5729;43.570;27.826;2023-05-10T00:26:38;12.90;;;9.60;;
11348;SDS011;5729;43.570;27.826;2023-05-10T00:29:03;14.70;;;10.25;;
11348;SDS011;5729;43.570;27.826;2023-05-10T00:31:29;13.90;;;9.30;;
11348;SDS011;5729;43.570;27.826;2023-05-10T00:33:54;11.35;;;9.02;;
11348;SDS011;5729;43.570;27.826;2023-05-10T00:36:20;11.50;;;8.57;;
11348;SDS011;5729;43.570;27.826;2023-05-10T00:38:46;10.63;;;8.73;;
11348;SDS011;5729;43.570;27.826;2023-05-10T00:41:11;11.25;;;8.57;;
11348;SDS011;5729;43.570;27.826;2023-05-10T00:43:37;10.00;;;7.78;;
11348;SDS011;5729;43.570;27.826;2023-05-10T00:46:02;10.48;;;7.63;;
11348;SDS011;5729;43.570;27.826;2023-05-10T00:48:30;11.55;;;7.10;;
11348;SDS011;5729;43.570;27.826;2023-05-10T00:50:55;11.75;;;7.32;;
11348;SDS011;5729;43.570;27.826;2023-05-10T00:53:21;8.48;;;7.15;;
11348;SDS011;5729;43.570;27.826;2023-05-10T00:55:46;10.75;;;7.40;;
11348;SDS011;5729;43.570;27.826;2023-05-10T00:58:12;10.70;;;7.13;;
11348;SDS011;5729;43.570;27.826;2023-05-10T01:00:37;10.18;;;7.15;;
11348;SDS011;5729;43.570;27.826;2023-05-10T01:03:07;9.07;;;6.80;;
11348;SDS011;5729;43.570;27.826;2023-05-10T01:05:32;10.52;;;6.78;;
11348;SDS011;5729;43.570;27.826;2023-05-10T01:07:58;8.82;;;6.70;;
11348;SDS011;5729;43.570;27.826;2023-05-10T01:10:23;13.02;;;6.70;;
11348;SDS011;5729;43.570;27.826;2023-05-10T01:12:49;11.10;;;6.88;;
11348;SDS011;5729;43.570;27.826;2023-05-10T01:15:14;8.30;;;6.22;;
11348;SDS011;5729;43.570;27.826;2023-05-10T01:17:43;14.52;;;6.43;;
11348;SDS011;5729;43.570;27.826;2023-05-10T01:20:11;8.23;;;6.43;;
11348;SDS011;5729;43.570;27.826;2023-05-10T01:33:26;11.05;;;7.20;;
11348;SDS011;5729;43.570;27.826;2023-05-10T01:36:03;12.15;;;7.22;;
11348;SDS011;5729;43.570;27.826;2023-05-10T01:38:38;9.07;;;6.20;;
11348;SDS011;5729;43.570;27.826;2023-05-10T01:41:19;12.57;;;7.15;;
11348;SDS011;5729;43.570;27.826;2023-05-10T01:43:56;12.02;;;7.47;;
11348;SDS011;5729;43.570;27.826;2023-05-10T01:46:35;12.60;;;7.15;;
11348;SDS011;5729;43.570;27.826;2023-05-10T01:49:02;9.80;;;7.38;;
11348;SDS011;5729;43.570;27.826;2023-05-10T01:51:36;11.68;;;6.93;;
11348;SDS011;5729;43.570;27.826;2023-05-10T01:54:06;11.73;;;7.65;;
11348;SDS011;5729;43.570;27.826;2023-05-10T01:56:35;13.05;;;7.75;;
11348;SDS011;5729;43.570;27.826;2023-05-10T01:59:04;15.00;;;9.05;;
11348;SDS011;5729;43.570;27.826;2023-05-10T02:01:33;15.68;;;8.60;;
11348;SDS011;5729;43.570;27.826;2023-05-10T02:04:02;13.90;;;8.38;;
11348;SDS011;5729;43.570;27.826;2023-05-10T02:06:29;13.80;;;8.95;;
11348;SDS011;5729;43.570;27.826;2023-05-10T02:08:57;18.48;;;8.07;;
11348;SDS011;5729;43.570;27.826;2023-05-10T02:11:23;22.00;;;8.48;;
11348;SDS011;5729;43.570;27.826;2023-05-10T02:13:50;15.82;;;7.35;;
11348;SDS011;5729;43.570;27.826;2023-05-10T02:16:18;14.07;;;8.10;;
11348;SDS011;5729;43.570;27.826;2023-05-10T02:18:50;12.82;;;7.68;;
11348;SDS011;5729;43.570;27.826;2023-05-10T02:21:17;11.77;;;7.18;;
11348;SDS011;5729;43.570;27.826;2023-05-10T02:23:45;20.30;;;7.90;;
11348;SDS011;5729;43.570;27.826;2023-05-10T02:26:13;25.92;;;8.30;;
11348;SDS011;5729;43.570;27.826;2023-05-10T02:28:40;27.33;;;8.25;;
11348;SDS011;5729;43.570;27.826;2023-05-10T02:31:07;26.52;;;8.52;;
11348;SDS011;5729;43.570;27.826;2023-05-10T02:33:35;19.52;;;7.75;;
11348;SDS011;5729;43.570;27.826;2023-05-10T02:36:04;16.73;;;8.27;;
11348;SDS011;5729;43.570;27.826;2023-05-10T02:38:32;41.90;;;7.15;;
11348;SDS011;5729;43.570;27.826;2023-05-10T02:40:59;30.73;;;6.78;;
11348;SDS011;5729;43.570;27.826;2023-05-10T02:43:26;32.17;;;6.80;;
11348;SDS011;5729;43.570;27.826;2023-05-10T02:45:55;43.22;;;7.78;;
11348;SDS011;5729;43.570;27.826;2023-05-10T02:48:20;25.65;;;8.35;;
11348;SDS011;5729;43.570;27.826;2023-05-10T02:50:46;30.88;;;7.20;;
11348;SDS011;5729;43.570;27.826;2023-05-10T02:53:18;45.38;;;7.55;;
11348;SDS011;5729;43.570;27.826;2023-05-10T02:55:49;46.10;;;7.50;;
11348;SDS011;5729;43.570;27.826;2023-05-10T02:58:17;41.45;;;8.75;;
11348;SDS011;5729;43.570;27.826;2023-05-10T03:00:44;42.95;;;6.95;;
11348;SDS011;5729;43.570;27.826;2023-05-10T03:03:11;28.33;;;5.75;;
11348;SDS011;5729;43.570;27.826;2023-05-10T03:05:36;25.85;;;6.45;;
11348;SDS011;5729;43.570;27.826;2023-05-10T03:08:02;24.63;;;7.22;;
11348;SDS011;5729;43.570;27.826;2023-05-10T03:10:29;25.50;;;7.03;;
11348;SDS011;5729;43.570;27.826;2023-05-10T03:18:47;51.60;;;6.60;;
11348;SDS011;5729;43.570;27.826;2023-05-10T03:21:19;33.22;;;7.50;;
11348;SDS011;5729;43.570;27.826;2023-05-10T03:23:50;30.05;;;6.22;;
11348;SDS011;5729;43.570;27.826;2023-05-10T03:26:22;34.65;;;6.22;;
11348;SDS011;5729;43.570;27.826;2023-05-10T03:28:50;29.23;;;5.38;;
11348;SDS011;5729;43.570;27.826;2023-05-10T03:31:17;38.35;;;4.80;;
11348;SDS011;5729;43.570;27.826;2023-05-10T03:33:47;24.95;;;5.20;;
11348;SDS011;5729;43.570;27.826;2023-05-10T03:36:16;26.05;;;4.90;;
11348;SDS011;5729;43.570;27.826;2023-05-10T03:38:42;26.23;;;5.38;;
11348;SDS011;5729;43.570;27.826;2023-05-10T03:41:07;28.88;;;4.75;;
11348;SDS011;5729;43.570;27.826;2023-05-10T03:43:33;35.15;;;5.00;;
11348;SDS011;5729;43.570;27.826;2023-05-10T03:45:58;12.25;;;4.82;;
11348;SDS011;5729;43.570;27.826;2023-05-10T03:48:27;22.77;;;5.68;;
11348;SDS011;5729;43.570;27.826;2023-05-10T03:50:52;25.83;;;5.35;;
11348;SDS011;5729;43.570;27.826;2023-05-10T03:53:17;14.40;;;5.05;;
11348;SDS011;5729;43.570;27.826;2023-05-10T03:55:43;28.38;;;5.13;;
11348;SDS011;5729;43.570;27.826;2023-05-10T03:58:11;29.00;;;5.00;;
11348;SDS011;5729;43.570;27.826;2023-05-10T04:00:37;15.07;;;4.40;;
11348;SDS011;5729;43.570;27.826;2023-05-10T04:03:02;13.70;;;4.60;;
11348;SDS011;5729;43.570;27.826;2023-05-10T04:05:28;32.60;;;5.05;;
11348;SDS011;5729;43.570;27.826;2023-05-10T04:07:53;22.92;;;5.63;;
11348;SDS011;5729;43.570;27.826;2023-05-10T04:10:19;30.00;;;6.32;;
11348;SDS011;5729;43.570;27.826;2023-05-10T04:12:45;26.70;;;5.40;;
11348;SDS011;5729;43.570;27.826;2023-05-10T04:15:11;23.50;;;5.30;;
11348;SDS011;5729;43.570;27.826;2023-05-10T04:17:36;21.50;;;4.88;;
11348;SDS011;5729;43.570;27.826;2023-05-10T04:20:02;14.10;;;5.50;;
11348;SDS011;5729;43.570;27.826;2023-05-10T04:22:28;32.13;;;5.40;;
11348;SDS011;5729;43.570;27.826;2023-05-10T04:24:54;17.70;;;5.35;;
11348;SDS011;5729;43.570;27.826;2023-05-10T04:27:19;13.65;;;5.78;;
11348;SDS011;5729;43.570;27.826;2023-05-10T04:29:45;18.98;;;5.60;;
11348;SDS011;5729;43.570;27.826;2023-05-10T04:32:10;12.05;;;6.05;;
11348;SDS011;5729;43.570;27.826;2023-05-10T04:34:36;16.35;;;6.45;;
11348;SDS011;5729;43.570;27.826;2023-05-10T04:37:02;13.65;;;6.60;;
11348;SDS011;5729;43.570;27.826;2023-05-10T04:39:27;10.18;;;6.55;;
11348;SDS011;5729;43.570;27.826;2023-05-10T04:41:53;34.08;;;7.43;;
11348;SDS011;5729;43.570;27.826;2023-05-10T04:44:18;23.25;;;6.07;;
11348;SDS011;5729;43.570;27.826;2023-05-10T04:46:43;17.25;;;5.47;;
11348;SDS011;5729;43.570;27.826;2023-05-10T04:49:09;24.40;;;6.95;;
11348;SDS011;5729;43.570;27.826;2023-05-10T04:51:34;23.55;;;6.57;;
11348;SDS011;5729;43.570;27.826;2023-05-10T04:54:00;17.15;;;7.10;;
11348;SDS011;5729;43.570;27.826;2023-05-10T04:56:25;16.08;;;7.07;;
11348;SDS011;5729;43.570;27.826;2023-05-10T04:58:51;9.60;;;6.95;;
11348;SDS011;5729;43.570;27.826;2023-05-10T05:01:16;9.32;;;6.57;;
11348;SDS011;5729;43.570;27.826;2023-05-10T05:03:42;12.43;;;7.63;;
11348;SDS011;5729;43.570;27.826;2023-05-10T05:06:07;13.98;;;7.13;;
11348;SDS011;5729;43.570;27.826;2023-05-10T05:08:32;7.85;;;7.00;;
11348;SDS011;5729;43.570;27.826;2023-05-10T05:10:58;13.95;;;7.10;;
11348;SDS011;5729;43.570;27.826;2023-05-10T05:13:24;12.80;;;6.88;;
11348;SDS011;5729;43.570;27.826;2023-05-10T05:15:49;8.85;;;6.30;;
11348;SDS011;5729;43.570;27.826;2023-05-10T05:18:15;9.13;;;6.47;;
11348;SDS011;5729;43.570;27.826;2023-05-10T05:20:40;11.07;;;7.65;;
11348;SDS011;5729;43.570;27.826;2023-05-10T05:23:06;7.10;;;6.40;;
11348;SDS011;5729;43.570;27.826;2023-05-10T05:25:31;8.70;;;6.80;;
11348;SDS011;5729;43.570;27.826;2023-05-10T05:27:57;6.88;;;6.03;;
11348;SDS011;5729;43.570;27.826;2023-05-10T05:30:22;12.27;;;9.15;;
11348;SDS011;5729;43.570;27.826;2023-05-10T05:32:48;8.30;;;7.40;;
11348;SDS011;5729;43.570;27.826;2023-05-10T05:35:13;9.30;;;6.57;;
11348;SDS011;5729;43.570;27.826;2023-05-10T05:37:38;13.18;;;6.68;;
11348;SDS011;5729;43.570;27.826;2023-05-10T05:40:04;13.88;;;7.18;;
11348;SDS011;5729;43.570;27.826;2023-05-10T05:42:30;7.78;;;6.80;;
11348;SDS011;5729;43.570;27.826;2023-05-10T05:44:56;8.95;;;6.95;;
11348;SDS011;5729;43.570;27.826;2023-05-10T05:47:21;8.25;;;6.43;;
11348;SDS011;5729;43.570;27.826;2023-05-10T05:49:47;11.18;;;7.25;;
11348;SDS011;5729;43.570;27.826;2023-05-10T05:52:12;11.32;;;7.00;;
11348;SDS011;5729;43.570;27.826;2023-05-10T05:54:38;13.05;;;7.95;;
11348;SDS011;5729;43.570;27.826;2023-05-10T05:57:03;11.65;;;7.25;;
11348;SDS011;5729;43.570;27.826;2023-05-10T05:59:29;9.18;;;7.43;;
11348;SDS011;5729;43.570;27.826;2023-05-10T06:01:54;9.30;;;7.43;;
11348;SDS011;5729;43.570;27.826;2023-05-10T06:04:20;10.07;;;7.95;;
11348;SDS011;5729;43.570;27.826;2023-05-10T06:06:45;9.60;;;7.32;;
11348;SDS011;5729;43.570;27.826;2023-05-10T06:09:11;10.55;;;7.15;;
11348;SDS011;5729;43.570;27.826;2023-05-10T06:11:37;10.43;;;7.20;;
11348;SDS011;5729;43.570;27.826;2023-05-10T06:14:03;18.92;;;7.75;;
11348;SDS011;5729;43.570;27.826;2023-05-10T06:16:29;11.98;;;5.80;;
11348;SDS011;5729;43.570;27.826;2023-05-10T06:18:55;10.73;;;5.00;;
11348;SDS011;5729;43.570;27.826;2023-05-10T06:21:21;7.03;;;4.53;;
11348;SDS011;5729;43.570;27.826;2023-05-10T06:23:46;10.77;;;4.03;;
11348;SDS011;5729;43.570;27.826;2023-05-10T06:26:12;9.45;;;3.63;;
11348;SDS011;5729;43.570;27.826;2023-05-10T06:28:38;5.10;;;3.67;;
11348;SDS011;5729;43.570;27.826;2023-05-10T06:31:04;6.25;;;3.40;;
11348;SDS011;5729;43.570;27.826;2023-05-10T06:33:30;6.78;;;3.60;;
11348;SDS011;5729;43.570;27.826;2023-05-10T06:35:56;6.78;;;4.07;;
11348;SDS011;5729;43.570;27.826;2023-05-10T06:38:22;4.68;;;3.28;;
11348;SDS011;5729;43.570;27.826;2023-05-10T06:40:47;5.05;;;3.40;;
11348;SDS011;5729;43.570;27.826;2023-05-10T06:43:13;5.90;;;3.40;;
11348;SDS011;5729;43.570;27.826;2023-05-10T06:45:39;4.15;;;3.58;;
11348;SDS011;5729;43.570;27.826;2023-05-10T06:48:04;5.55;;;2.85;;
11348;SDS011;5729;43.570;27.826;2023-05-10T06:50:30;7.18;;;3.13;;
11348;SDS011;5729;43.570;27.826;2023-05-10T06:52:56;5.35;;;3.40;;
11348;SDS011;5729;43.570;27.826;2023-05-10T06:55:21;6.30;;;3.33;;
11348;SDS011;5729;43.570;27.826;2023-05-10T06:57:47;5.78;;;3.50;;
11348;SDS011;5729;43.570;27.826;2023-05-10T07:00:13;3.80;;;3.05;;
11348;SDS011;5729;43.570;27.826;2023-05-10T07:02:39;5.47;;;3.25;;
11348;SDS011;5729;43.570;27.826;2023-05-10T07:05:04;9.27;;;3.85;;
11348;SDS011;5729;43.570;27.826;2023-05-10T07:07:30;5.05;;;3.47;;
11348;SDS011;5729;43.570;27.826;2023-05-10T07:09:56;3.67;;;3.00;;
11348;SDS011;5729;43.570;27.826;2023-05-10T07:12:22;3.50;;;3.10;;
11348;SDS011;5729;43.570;27.826;2023-05-10T07:14:48;5.35;;;3.15;;
11348;SDS011;5729;43.570;27.826;2023-05-10T07:17:13;4.28;;;3.20;;
11348;SDS011;5729;43.570;27.826;2023-05-10T07:19:39;3.45;;;2.90;;
11348;SDS011;5729;43.570;27.826;2023-05-10T07:22:05;4.35;;;2.72;;
11348;SDS011;5729;43.570;27.826;2023-05-10T07:24:32;4.35;;;3.10;;
11348;SDS011;5729;43.570;27.826;2023-05-10T07:26:58;4.97;;;3.00;;
11348;SDS011;5729;43.570;27.826;2023-05-10T07:29:23;4.10;;;2.83;;
11348;SDS011;5729;43.570;27.826;2023-05-10T07:31:49;3.85;;;3.42;;
11348;SDS011;5729;43.570;27.826;2023-05-10T07:34:14;4.63;;;3.13;;
11348;SDS011;5729;43.570;27.826;2023-05-10T07:36:40;3.72;;;2.88;;
11348;SDS011;5729;43.570;27.826;2023-05-10T07:39:06;4.47;;;3.03;;
11348;SDS011;5729;43.570;27.826;2023-05-10T07:41:31;6.53;;;3.20;;
11348;SDS011;5729;43.570;27.826;2023-05-10T07:43:57;6.97;;;3.55;;
11348;SDS011;5729;43.570;27.826;2023-05-10T07:46:23;6.45;;;3.40;;
11348;SDS011;5729;43.570;27.826;2023-05-10T07:48:48;6.47;;;3.20;;
11348;SDS011;5729;43.570;27.826;2023-05-10T07:51:14;4.90;;;3.78;;
11348;SDS011;5729;43.570;27.826;2023-05-10T07:53:39;6.88;;;2.88;;
11348;SDS011;5729;43.570;27.826;2023-05-10T07:56:25;3.55;;;2.97;;
11348;SDS011;5729;43.570;27.826;2023-05-10T07:59:01;3.00;;;2.75;;
11348;SDS011;5729;43.570;27.826;2023-05-10T08:01:32;6.68;;;3.13;;
11348;SDS011;5729;43.570;27.826;2023-05-10T08:03:58;5.80;;;2.13;;
11348;SDS011;5729;43.570;27.826;2023-05-10T08:06:25;7.38;;;3.17;;
11348;SDS011;5729;43.570;27.826;2023-05-10T08:08:53;3.80;;;3.28;;
11348;SDS011;5729;43.570;27.826;2023-05-10T08:11:22;2.63;;;2.30;;
11348;SDS011;5729;43.570;27.826;2023-05-10T08:13:48;4.13;;;2.35;;
11348;SDS011;5729;43.570;27.826;2023-05-10T08:16:15;4.30;;;2.60;;
11348;SDS011;5729;43.570;27.826;2023-05-10T08:18:42;10.35;;;2.05;;
11348;SDS011;5729;43.570;27.826;2023-05-10T08:21:10;2.78;;;2.15;;
11348;SDS011;5729;43.570;27.826;2023-05-10T08:23:36;6.50;;;2.53;;
11348;SDS011;5729;43.570;27.826;2023-05-10T08:26:02;8.25;;;2.40;;
11348;SDS011;5729;43.570;27.826;2023-05-10T08:28:27;3.70;;;2.42;;
11348;SDS011;5729;43.570;27.826;2023-05-10T08:30:53;7.40;;;2.65;;
11348;SDS011;5729;43.570;27.826;2023-05-10T08:33:19;2.70;;;2.20;;
11348;SDS011;5729;43.570;27.826;2023-05-10T08:35:45;3.83;;;2.30;;
11348;SDS011;5729;43.570;27.826;2023-05-10T08:38:10;3.85;;;2.40;;
11348;SDS011;5729;43.570;27.826;2023-05-10T08:40:42;4.88;;;2.50;;
11348;SDS011;5729;43.570;27.826;2023-05-10T08:43:10;4.38;;;2.30;;
11348;SDS011;5729;43.570;27.826;2023-05-10T08:45:37;3.67;;;2.83;;
11348;SDS011;5729;43.570;27.826;2023-05-10T08:48:07;5.63;;;2.28;;
11348;SDS011;5729;43.570;27.826;2023-05-10T08:50:37;3.38;;;2.30;;
11348;SDS011;5729;43.570;27.826;2023-05-10T08:53:11;4.72;;;2.50;;
11348;SDS011;5729;43.570;27.826;2023-05-10T08:55:38;4.70;;;2.35;;
11348;SDS011;5729;43.570;27.826;2023-05-10T08:58:05;4.05;;;2.80;;
11348;SDS011;5729;43.570;27.826;2023-05-10T09:00:31;3.38;;;2.58;;
11348;SDS011;5729;43.570;27.826;2023-05-10T09:03:00;2.53;;;2.08;;
11348;SDS011;5729;43.570;27.826;2023-05-10T09:05:26;3.90;;;1.98;;
11348;SDS011;5729;43.570;27.826;2023-05-10T09:07:52;3.85;;;2.00;;
11348;SDS011;5729;43.570;27.826;2023-05-10T09:10:18;7.03;;;2.38;;
11348;SDS011;5729;43.570;27.826;2023-05-10T09:12:44;3.83;;;1.95;;
11348;SDS011;5729;43.570;27.826;2023-05-10T09:15:11;3.85;;;2.70;;
11348;SDS011;5729;43.570;27.826;2023-05-10T09:17:40;4.15;;;2.42;;
11348;SDS011;5729;43.570;27.826;2023-05-10T09:20:07;3.35;;;2.28;;
11348;SDS011;5729;43.570;27.826;2023-05-10T09:22:33;2.78;;;2.33;;
11348;SDS011;5729;43.570;27.826;2023-05-10T09:25:09;3.35;;;2.17;;
11348;SDS011;5729;43.570;27.826;2023-05-10T09:27:36;6.82;;;2.30;;
11348;SDS011;5729;43.570;27.826;2023-05-10T09:30:03;4.75;;;1.90;;
11348;SDS011;5729;43.570;27.826;2023-05-10T09:32:39;2.33;;;2.13;;
11348;SDS011;5729;43.570;27.826;2023-05-10T09:35:07;6.03;;;2.40;;
11348;SDS011;5729;43.570;27.826;2023-05-10T09:37:33;5.00;;;2.40;;
11348;SDS011;5729;43.570;27.826;2023-05-10T09:39:58;2.50;;;1.60;;
11348;SDS011;5729;43.570;27.826;2023-05-10T09:42:24;5.78;;;2.10;;
11348;SDS011;5729;43.570;27.826;2023-05-10T09:44:50;2.95;;;1.90;;
11348;SDS011;5729;43.570;27.826;2023-05-10T09:47:18;5.10;;;2.17;;
11348;SDS011;5729;43.570;27.826;2023-05-10T09:49:48;4.50;;;2.10;;
11348;SDS011;5729;43.570;27.826;2023-05-10T09:52:15;2.47;;;2.05;;
11348;SDS011;5729;43.570;27.826;2023-05-10T09:54:42;5.00;;;2.33;;
11348;SDS011;5729;43.570;27.826;2023-05-10T09:57:20;7.05;;;2.58;;
11348;SDS011;5729;43.570;27.826;2023-05-10T09:59:47;5.82;;;1.92;;
11348;SDS011;5729;43.570;27.826;2023-05-10T10:02:13;4.18;;;2.08;;
11348;SDS011;5729;43.570;27.826;2023-05-10T10:04:41;2.67;;;1.70;;
11348;SDS011;5729;43.570;27.826;2023-05-10T10:07:07;2.17;;;1.98;;
11348;SDS011;5729;43.570;27.826;2023-05-10T10:09:33;4.20;;;2.10;;
11348;SDS011;5729;43.570;27.826;2023-05-10T10:12:00;2.00;;;1.77;;
11348;SDS011;5729;43.570;27.826;2023-05-10T10:14:26;2.78;;;1.65;;
11348;SDS011;5729;43.570;27.826;2023-05-10T10:16:51;3.08;;;2.20;;
11348;SDS011;5729;43.570;27.826;2023-05-10T10:19:21;2.85;;;2.10;;
11348;SDS011;5729;43.570;27.826;2023-05-10T10:21:50;2.83;;;1.60;;
11348;SDS011;5729;43.570;27.826;2023-05-10T10:24:16;4.60;;;1.80;;
11348;SDS011;5729;43.570;27.826;2023-05-10T10:26:41;3.60;;;1.92;;
11348;SDS011;5729;43.570;27.826;2023-05-10T10:32:12;2.08;;;1.90;;
11348;SDS011;5729;43.570;27.826;2023-05-10T10:34:47;2.05;;;1.80;;
11348;SDS011;5729;43.570;27.826;2023-05-10T10:37:13;4.25;;;2.15;;
11348;SDS011;5729;43.570;27.826;2023-05-10T10:39:38;2.65;;;1.90;;
11348;SDS011;5729;43.570;27.826;2023-05-10T10:42:04;5.25;;;2.10;;
11348;SDS011;5729;43.570;27.826;2023-05-10T10:50:01;3.05;;;1.88;;
11348;SDS011;5729;43.570;27.826;2023-05-10T10:52:32;3.95;;;1.80;;
11348;SDS011;5729;43.570;27.826;2023-05-10T10:55:06;2.35;;;2.10;;
11348;SDS011;5729;43.570;27.826;2023-05-10T10:57:43;2.58;;;2.08;;
11348;SDS011;5729;43.570;27.826;2023-05-10T11:02:46;4.32;;;1.90;;
11348;SDS011;5729;43.570;27.826;2023-05-10T11:07:54;2.40;;;2.10;;
11348;SDS011;5729;43.570;27.826;2023-05-10T11:10:22;3.58;;;2.20;;
11348;SDS011;5729;43.570;27.826;2023-05-10T11:13:05;2.33;;;2.03;;
11348;SDS011;5729;43.570;27.826;2023-05-10T11:15:33;4.40;;;2.28;;
11348;SDS011;5729;43.570;27.826;2023-05-10T11:17:59;2.28;;;2.05;;
11348;SDS011;5729;43.570;27.826;2023-05-10T11:20:28;2.03;;;1.83;;
11348;SDS011;5729;43.570;27.826;2023-05-10T11:23:12;2.20;;;1.98;;
11348;SDS011;5729;43.570;27.826;2023-05-10T11:25:43;6.18;;;2.40;;
11348;SDS011;5729;43.570;27.826;2023-05-10T11:28:10;2.70;;;2.10;;
11348;SDS011;5729;43.570;27.826;2023-05-10T11:30:39;2.88;;;2.22;;
11348;SDS011;5729;43.570;27.826;2023-05-10T11:33:08;2.92;;;1.95;;
11348;SDS011;5729;43.570;27.826;2023-05-10T11:35:40;4.43;;;2.10;;
11348;SDS011;5729;43.570;27.826;2023-05-10T11:38:09;15.30;;;2.60;;
11348;SDS011;5729;43.570;27.826;2023-05-10T11:40:36;3.42;;;2.38;;
11348;SDS011;5729;43.570;27.826;2023-05-10T11:43:02;7.00;;;2.40;;
11348;SDS011;5729;43.570;27.826;2023-05-10T11:45:31;3.05;;;2.50;;
11348;SDS011;5729;43.570;27.826;2023-05-10T11:47:58;2.38;;;2.17;;
11348;SDS011;5729;43.570;27.826;2023-05-10T11:50:24;4.38;;;2.13;;
11348;SDS011;5729;43.570;27.826;2023-05-10T11:52:54;4.53;;;2.45;;
11348;SDS011;5729;43.570;27.826;2023-05-10T11:55:20;5.10;;;2.33;;
11348;SDS011;5729;43.570;27.826;2023-05-10T11:57:46;1.90;;;1.80;;
11348;SDS011;5729;43.570;27.826;2023-05-10T12:00:13;4.90;;;2.13;;
11348;SDS011;5729;43.570;27.826;2023-05-10T12:02:39;2.88;;;2.53;;
11348;SDS011;5729;43.570;27.826;2023-05-10T12:05:05;5.22;;;2.13;;
11348;SDS011;5729;43.570;27.826;2023-05-10T12:07:31;4.32;;;2.15;;
11348;SDS011;5729;43.570;27.826;2023-05-10T12:10:06;5.38;;;2.30;;
11348;SDS011;5729;43.570;27.826;2023-05-10T12:12:43;3.10;;;2.10;;
11348;SDS011;5729;43.570;27.826;2023-05-10T12:15:19;2.80;;;2.22;;
11348;SDS011;5729;43.570;27.826;2023-05-10T12:17:47;2.53;;;2.20;;
11348;SDS011;5729;43.570;27.826;2023-05-10T12:20:19;6.10;;;2.20;;
11348;SDS011;5729;43.570;27.826;2023-05-10T12:22:50;5.35;;;2.15;;
11348;SDS011;5729;43.570;27.826;2023-05-10T12:25:20;2.63;;;2.13;;
11348;SDS011;5729;43.570;27.826;2023-05-10T12:27:51;9.35;;;2.50;;
11348;SDS011;5729;43.570;27.826;2023-05-10T12:30:21;5.18;;;2.47;;
11348;SDS011;5729;43.570;27.826;2023-05-10T12:32:50;5.90;;;2.45;;
11348;SDS011;5729;43.570;27.826;2023-05-10T12:35:16;2.90;;;2.60;;
11348;SDS011;5729;43.570;27.826;2023-05-10T12:37:45;3.17;;;2.20;;
11348;SDS011;5729;43.570;27.826;2023-05-10T12:40:11;8.10;;;2.22;;
11348;SDS011;5729;43.570;27.826;2023-05-10T12:42:37;4.15;;;2.38;;
11348;SDS011;5729;43.570;27.826;2023-05-10T12:45:04;2.38;;;2.17;;
11348;SDS011;5729;43.570;27.826;2023-05-10T12:47:31;2.78;;;1.92;;
11348;SDS011;5729;43.570;27.826;2023-05-10T12:49:58;4.03;;;2.42;;
11348;SDS011;5729;43.570;27.826;2023-05-10T12:52:25;3.67;;;2.20;;
11348;SDS011;5729;43.570;27.826;2023-05-10T12:54:51;6.50;;;2.33;;
11348;SDS011;5729;43.570;27.826;2023-05-10T12:57:18;2.67;;;2.10;;
11348;SDS011;5729;43.570;27.826;2023-05-10T12:59:43;3.92;;;2.05;;
11348;SDS011;5729;43.570;27.826;2023-05-10T13:02:09;3.63;;;2.42;;
11348;SDS011;5729;43.570;27.826;2023-05-10T13:04:35;3.28;;;2.33;;
11348;SDS011;5729;43.570;27.826;2023-05-10T13:07:04;2.88;;;2.10;;
11348;SDS011;5729;43.570;27.826;2023-05-10T13:09:30;2.95;;;2.00;;
11348;SDS011;5729;43.570;27.826;2023-05-10T13:11:56;3.28;;;1.88;;
11348;SDS011;5729;43.570;27.826;2023-05-10T13:14:21;3.20;;;2.00;;
11348;SDS011;5729;43.570;27.826;2023-05-10T13:16:47;2.70;;;1.80;;
11348;SDS011;5729;43.570;27.826;2023-05-10T13:19:13;3.75;;;2.03;;
11348;SDS011;5729;43.570;27.826;2023-05-10T13:21:39;4.60;;;2.05;;
11348;SDS011;5729;43.570;27.826;2023-05-10T13:24:09;3.67;;;2.20;;
11348;SDS011;5729;43.570;27.826;2023-05-10T13:26:35;4.05;;;2.15;;
11348;SDS011;5729;43.570;27.826;2023-05-10T13:29:01;6.22;;;3.17;;
11348;SDS011;5729;43.570;27.826;2023-05-10T13:31:27;2.75;;;2.15;;
11348;SDS011;5729;43.570;27.826;2023-05-10T13:33:53;3.88;;;2.08;;
11348;SDS011;5729;43.570;27.826;2023-05-10T13:36:18;7.25;;;2.60;;
11348;SDS011;5729;43.570;27.826;2023-05-10T13:38:44;4.18;;;2.28;;
11348;SDS011;5729;43.570;27.826;2023-05-10T13:41:09;6.22;;;2.60;;
11348;SDS011;5729;43.570;27.826;2023-05-10T13:43:35;8.95;;;2.55;;
11348;SDS011;5729;43.570;27.826;2023-05-10T13:46:01;7.10;;;2.35;;
11348;SDS011;5729;43.570;27.826;2023-05-10T13:48:26;5.47;;;2.40;;
11348;SDS011;5729;43.570;27.826;2023-05-10T13:50:52;2.78;;;2.10;;
11348;SDS011;5729;43.570;27.826;2023-05-10T13:53:17;2.85;;;2.38;;
11348;SDS011;5729;43.570;27.826;2023-05-10T13:55:43;5.13;;;2.60;;
11348;SDS011;5729;43.570;27.826;2023-05-10T13:58:09;2.38;;;1.98;;
11348;SDS011;5729;43.570;27.826;2023-05-10T14:00:34;3.17;;;2.50;;
11348;SDS011;5729;43.570;27.826;2023-05-10T14:03:00;3.72;;;2.47;;
11348;SDS011;5729;43.570;27.826;2023-05-10T14:05:25;6.68;;;2.28;;
11348;SDS011;5729;43.570;27.826;2023-05-10T14:07:51;2.65;;;2.22;;
11348;SDS011;5729;43.570;27.826;2023-05-10T14:10:16;4.80;;;1.77;;
11348;SDS011;5729;43.570;27.826;2023-05-10T14:12:42;5.50;;;2.20;;
11348;SDS011;5729;43.570;27.826;2023-05-10T14:15:07;3.53;;;1.90;;
11348;SDS011;5729;43.570;27.826;2023-05-10T14:17:35;3.42;;;2.28;;
11348;SDS011;5729;43.570;27.826;2023-05-10T14:20:01;4.43;;;2.30;;
11348;SDS011;5729;43.570;27.826;2023-05-10T14:22:27;4.47;;;2.05;;
11348;SDS011;5729;43.570;27.826;2023-05-10T14:24:52;4.20;;;2.20;;
11348;SDS011;5729;43.570;27.826;2023-05-10T14:27:17;5.32;;;1.90;;
11348;SDS011;5729;43.570;27.826;2023-05-10T14:29:43;6.75;;;2.70;;
11348;SDS011;5729;43.570;27.826;2023-05-10T14:32:08;2.53;;;2.30;;
11348;SDS011;5729;43.570;27.826;2023-05-10T14:34:34;2.15;;;1.95;;
11348;SDS011;5729;43.570;27.826;2023-05-10T14:37:00;2.92;;;2.20;;
11348;SDS011;5729;43.570;27.826;2023-05-10T14:39:25;3.60;;;2.05;;
11348;SDS011;5729;43.570;27.826;2023-05-10T14:41:54;5.75;;;3.00;;
11348;SDS011;5729;43.570;27.826;2023-05-10T14:44:20;5.03;;;2.70;;
11348;SDS011;5729;43.570;27.826;2023-05-10T14:46:45;2.63;;;2.10;;
11348;SDS011;5729;43.570;27.826;2023-05-10T14:49:11;2.80;;;2.25;;
11348;SDS011;5729;43.570;27.826;2023-05-10T14:51:36;3.10;;;2.30;;
11348;SDS011;5729;43.570;27.826;2023-05-10T14:54:02;3.25;;;2.22;;
11348;SDS011;5729;43.570;27.826;2023-05-10T14:56:27;3.47;;;2.35;;
11348;SDS011;5729;43.570;27.826;2023-05-10T14:58:53;3.60;;;2.28;;
11348;SDS011;5729;43.570;27.826;2023-05-10T15:01:18;4.55;;;2.50;;
11348;SDS011;5729;43.570;27.826;2023-05-10T15:03:44;2.88;;;2.33;;
11348;SDS011;5729;43.570;27.826;2023-05-10T15:06:09;7.57;;;2.97;;
11348;SDS011;5729;43.570;27.826;2023-05-10T15:08:35;2.95;;;2.45;;
11348;SDS011;5729;43.570;27.826;2023-05-10T15:11:01;5.50;;;2.38;;
11348;SDS011;5729;43.570;27.826;2023-05-10T15:13:26;5.28;;;2.40;;